Margaretville, NY (12455)

11:24 AM EST on November 24, 2014 (GMT -0500)
barley road | Change Station
CLOSE
Current Station
Personal Weather Station
Location: Shandaken, NY
Elevation: 2311 ft
Nearby Weather Stations
Active Advisory: Winter Storm Watch, Wind Advisory

Elev 2311 ft 42.15 °N, 74.48 °W | Updated 9 minutes ago

Overcast
Overcast
59.3 °F
Feels Like 59.3 °F
N
2.0
Wind Variable Wind from SW
Gusts 19.0 mph

Today
High -- | Low -- °F
--% Chance of Precip.
Yesterday
High -- | Low -- °F
Precip. -- in
6:59 AM 4:30 PM
Waxing Crescent, 6% visible
Pressure 29.61 in
Visibility 10.0 miles
Clouds Mostly Cloudy 1100 ft
Overcast 1900 ft
Dew Point 55 °F
Humidity 86%
Rainfall 0.18 in
Snow Depth Not available.
UV 1 out of 12
Pollen .10 out of 12
Air Quality Not available.
Flu Activity Not available.
METAR KMSV 241615Z AUTO 21010G14KT 10SM BKN011 OVC019 16/15 A2961 RMK AO1

More Conditions Fewer Conditions

Pressure 29.61 in
Visibility 10.0 miles
Clouds Mostly Cloudy 1100 ft
Overcast 1900 ft
Dew Point 55 °F
Humidity 86%
Rainfall 0.18 in
Snow Depth Not available.
UV 1 out of 12
Pollen .10 out of 12
Air Quality Not available.
Flu Activity Not available.
METAR KMSV 241615Z AUTO 21010G14KT 10SM BKN011 OVC019 16/15 A2961 RMK AO1

More Conditions Fewer Conditions

10-Day Weather Forecast

Almanac

Astronomy

Nov. 24, 2014 Rise Set
Actual Time
Civil Twilight
Nautical Twilight
Astronomical Twilight
Moon
Length of Visible Light
Length of Day
Tomorrow will be .
, % of the Moon is Illuminated

Today's Extremes

State Highs State Lows

Community

WunderPhotos

Upload Photos

1,773,364 photos uploaded!

WunderBlogs® & News

Nearby

Air Quality

  Air Quality AQ Index Pollutant
Not available.

Snow Depth

Station Depth Elevation

Earthquake Activity

City Distance Mag. Time & Date
Minimum magnitude displayed is 2.5.

Coastal Water Temperatures

Place Temperature

Nearby Weather Stations